createdAt,value
2017-06-06T00:00:03.272Z,0
2017-06-06T00:05:02.496Z,0
2017-06-06T00:10:02.936Z,0
2017-06-06T00:15:02.413Z,0
2017-06-06T00:20:02.794Z,0
2017-06-06T00:25:03.135Z,0
2017-06-06T00:30:02.505Z,0
2017-06-06T00:35:03.031Z,0
2017-06-06T00:40:02.438Z,0
2017-06-06T00:45:02.909Z,0
2017-06-06T00:50:03.265Z,0
2017-06-06T00:55:02.552Z,0
2017-06-06T01:00:02.962Z,0
2017-06-06T01:05:02.399Z,0
2017-06-06T01:10:02.792Z,0
2017-06-06T01:15:03.197Z,0
2017-06-06T01:20:02.586Z,0
2017-06-06T01:25:02.944Z,0
2017-06-06T01:30:03.308Z,0
2017-06-06T01:35:02.636Z,0
2017-06-06T01:40:03.059Z,0
2017-06-06T01:45:02.352Z,0
2017-06-06T01:50:02.661Z,0
2017-06-06T01:55:03.096Z,0
2017-06-06T02:00:02.560Z,0
2017-06-06T02:05:02.956Z,0
2017-06-06T02:10:02.388Z,0
2017-06-06T02:15:03.088Z,0
2017-06-06T02:20:02.453Z,0
2017-06-06T02:25:02.831Z,0
2017-06-06T02:30:03.216Z,0
2017-06-06T02:35:02.578Z,0
2017-06-06T02:40:03.086Z,1
2017-06-06T02:45:02.504Z,2
2017-06-06T02:50:02.965Z,4
2017-06-06T02:55:02.353Z,7
2017-06-06T03:00:02.756Z,11
2017-06-06T03:05:03.159Z,25
2017-06-06T03:10:02.560Z,40
2017-06-06T03:15:02.950Z,52
2017-06-06T03:20:02.343Z,59
2017-06-06T03:25:02.782Z,70
2017-06-06T03:30:03.130Z,98
2017-06-06T03:35:02.509Z,266
2017-06-06T03:40:03.000Z,360
2017-06-06T03:45:02.659Z,468
2017-06-06T03:50:03.057Z,584
2017-06-06T03:55:02.474Z,658
2017-06-06T04:00:03.045Z,696
2017-06-06T04:05:02.437Z,795
2017-06-06T04:10:02.801Z,927
2017-06-06T04:15:03.205Z,1000
2017-06-06T04:20:02.577Z,1000
2017-06-06T04:25:02.993Z,1000
2017-06-06T04:30:02.667Z,1000
2017-06-06T04:35:03.068Z,2000
2017-06-06T04:40:02.424Z,2000
2017-06-06T04:45:02.841Z,3000
2017-06-06T04:50:03.238Z,2000
2017-06-06T04:55:02.687Z,2000
2017-06-06T05:00:03.195Z,2000
2017-06-06T05:05:02.461Z,2000
2017-06-06T05:10:02.815Z,2000
2017-06-06T05:15:02.339Z,1000
2017-06-06T05:20:02.732Z,1000
2017-06-06T05:25:03.072Z,1000
2017-06-06T05:30:02.500Z,1000
2017-06-06T05:35:02.925Z,1000
2017-06-06T05:40:03.248Z,1000
2017-06-06T05:45:02.742Z,2000
2017-06-06T05:50:03.156Z,3000
2017-06-06T05:55:02.578Z,5000
2017-06-06T06:00:02.928Z,6000
2017-06-06T06:05:02.387Z,5000
2017-06-06T06:10:02.819Z,5000
2017-06-06T06:15:03.179Z,4000
2017-06-06T06:20:02.507Z,2000
2017-06-06T06:25:02.812Z,2000
2017-06-06T06:30:03.244Z,1000
2017-06-06T06:35:02.571Z,2000
2017-06-06T06:40:03.094Z,2000
2017-06-06T06:45:02.491Z,2000
2017-06-06T06:50:02.939Z,3000
2017-06-06T06:55:03.241Z,3000
2017-06-06T07:00:02.644Z,3000
2017-06-06T07:05:03.077Z,3000
2017-06-06T07:10:02.575Z,3000
2017-06-06T07:15:02.974Z,3000
2017-06-06T07:20:03.292Z,4000
2017-06-06T07:25:02.680Z,4000
2017-06-06T07:30:02.997Z,5000
2017-06-06T07:35:02.393Z,8000
2017-06-06T07:40:02.845Z,8000
2017-06-06T07:45:03.158Z,10000
2017-06-06T07:50:02.637Z,10000
2017-06-06T07:55:02.949Z,6000
2017-06-06T08:00:02.436Z,5000
2017-06-06T08:05:02.835Z,5000
2017-06-06T08:10:03.260Z,5000
2017-06-06T08:15:02.646Z,5000
2017-06-06T08:20:02.431Z,5000
2017-06-06T08:25:03.096Z,5000
2017-06-06T08:30:02.501Z,6000
2017-06-06T08:35:02.634Z,6000
2017-06-06T08:40:02.399Z,5000
2017-06-06T08:45:02.825Z,4000
2017-06-06T08:50:03.065Z,4000
2017-06-06T08:55:02.550Z,4000
2017-06-06T09:00:02.568Z,6000
2017-06-06T09:05:02.749Z,5000
2017-06-06T09:10:02.738Z,6000
2017-06-06T09:15:02.821Z,6000
2017-06-06T09:20:02.378Z,4000
2017-06-06T09:25:02.498Z,7000
2017-06-06T09:30:02.984Z,6000
2017-06-06T09:35:03.294Z,5000
2017-06-06T09:40:03.219Z,5000
2017-06-06T09:45:03.310Z,2000
2017-06-06T09:50:02.730Z,4000
2017-06-06T09:55:03.270Z,8000
2017-06-06T10:00:02.698Z,8000
2017-06-06T10:05:03.274Z,6000
2017-06-06T10:10:02.332Z,6000
2017-06-06T10:15:02.483Z,9000
2017-06-06T10:20:02.968Z,14000
2017-06-06T10:25:02.794Z,31000
2017-06-06T10:30:03.013Z,10000
2017-06-06T10:35:03.082Z,15000
2017-06-06T10:40:03.139Z,15000
2017-06-06T10:45:02.975Z,19000
2017-06-06T10:50:02.812Z,46000
2017-06-06T10:55:03.189Z,65000
2017-06-06T11:00:03.310Z,39000
2017-06-06T11:05:02.904Z,22000
2017-06-06T11:10:02.844Z,57000
2017-06-06T11:15:02.570Z,12000
2017-06-06T11:20:03.224Z,10000
2017-06-06T11:25:02.782Z,11000
2017-06-06T11:30:02.372Z,27000
2017-06-06T11:35:02.715Z,50000
2017-06-06T11:40:02.696Z,62000
2017-06-06T11:45:02.946Z,34000
2017-06-06T11:50:03.210Z,10000
2017-06-06T11:55:03.197Z,5000
2017-06-06T12:00:02.452Z,6000
2017-06-06T12:05:03.302Z,6000
2017-06-06T12:10:02.873Z,4000
2017-06-06T12:15:02.573Z,42000
2017-06-06T12:20:03.168Z,43000
2017-06-06T12:25:02.340Z,8000
2017-06-06T12:30:02.344Z,42000
2017-06-06T12:35:02.559Z,14000
2017-06-06T12:40:02.374Z,15000
2017-06-06T12:45:02.797Z,11000
2017-06-06T12:50:02.581Z,11000
2017-06-06T12:55:02.762Z,6000
2017-06-06T13:00:02.344Z,9000
2017-06-06T13:05:02.634Z,14000
2017-06-06T13:10:02.476Z,8000
2017-06-06T13:15:03.052Z,33000
2017-06-06T13:20:03.003Z,32000
2017-06-06T13:25:02.485Z,8000
2017-06-06T13:30:02.931Z,12000
2017-06-06T13:35:02.470Z,40000
2017-06-06T13:40:02.787Z,35000
2017-06-06T13:45:03.133Z,9000
2017-06-06T13:50:02.451Z,17000
2017-06-06T13:55:02.553Z,8000
2017-06-06T14:00:02.745Z,7000
2017-06-06T14:05:02.630Z,9000
2017-06-06T14:10:02.930Z,10000
2017-06-06T14:15:03.148Z,34000
2017-06-06T14:20:02.681Z,29000
2017-06-06T14:25:02.923Z,29000
2017-06-06T14:30:03.071Z,20000
2017-06-06T14:35:02.467Z,9000
2017-06-06T14:40:02.551Z,9000
2017-06-06T14:45:02.798Z,9000
2017-06-06T14:50:03.151Z,11000
2017-06-06T14:55:02.394Z,25000
2017-06-06T15:00:02.696Z,3000
2017-06-06T15:05:02.937Z,5000
2017-06-06T15:10:02.375Z,35000
2017-06-06T15:15:02.716Z,23000
2017-06-06T15:20:03.090Z,22000
2017-06-06T15:25:02.601Z,22000
2017-06-06T15:30:02.555Z,24000
2017-06-06T15:35:02.560Z,21000
2017-06-06T15:40:02.900Z,20000
2017-06-06T15:45:03.100Z,6000
2017-06-06T15:50:02.437Z,5000
2017-06-06T15:55:02.691Z,4000
2017-06-06T16:00:02.886Z,8000
2017-06-06T16:05:02.505Z,3000
2017-06-06T16:10:02.893Z,4000
2017-06-06T16:15:03.177Z,9000
2017-06-06T16:20:03.176Z,6000
2017-06-06T16:25:02.582Z,8000
2017-06-06T16:30:03.028Z,7000
2017-06-06T16:35:02.449Z,16000
2017-06-06T16:40:02.951Z,14000
2017-06-06T16:45:02.451Z,14000
2017-06-06T16:50:02.284Z,12000
2017-06-06T16:55:02.572Z,12000
2017-06-06T17:00:03.013Z,11000
2017-06-06T17:05:03.157Z,11000
2017-06-06T17:10:02.739Z,11000
2017-06-06T17:15:02.862Z,10000
2017-06-06T17:20:02.424Z,10000
2017-06-06T17:25:03.186Z,9000
2017-06-06T17:30:02.362Z,9000
2017-06-06T17:35:02.660Z,8000
2017-06-06T17:40:03.086Z,8000
2017-06-06T17:45:02.997Z,4000
2017-06-06T17:50:02.615Z,2000
2017-06-06T17:55:03.297Z,1000
2017-06-06T18:00:02.443Z,6000
2017-06-06T18:05:02.640Z,2000
2017-06-06T18:10:02.793Z,4000
2017-06-06T18:15:02.640Z,2000
2017-06-06T18:20:02.961Z,3000
2017-06-06T18:25:02.491Z,2000
2017-06-06T18:30:02.456Z,1000
2017-06-06T18:35:02.782Z,873
2017-06-06T18:40:03.245Z,753
2017-06-06T18:45:02.909Z,638
2017-06-06T18:50:02.545Z,534
2017-06-06T18:55:03.153Z,525
2017-06-06T19:00:02.658Z,443
2017-06-06T19:05:02.520Z,359
2017-06-06T19:10:03.074Z,264
2017-06-06T19:15:03.174Z,104
2017-06-06T19:20:03.086Z,258
2017-06-06T19:25:02.935Z,188
2017-06-06T19:30:03.216Z,158
2017-06-06T19:35:02.303Z,132
2017-06-06T19:40:02.491Z,83
2017-06-06T19:45:02.938Z,68
2017-06-06T19:50:03.175Z,61
2017-06-06T19:55:02.518Z,48
2017-06-06T20:00:03.299Z,40
2017-06-06T20:05:03.265Z,29
2017-06-06T20:10:03.257Z,26
2017-06-06T20:15:02.370Z,20
2017-06-06T20:20:02.330Z,13
2017-06-06T20:25:03.091Z,6
2017-06-06T20:30:02.964Z,2
2017-06-06T20:35:02.729Z,1
2017-06-06T20:40:03.227Z,0
2017-06-06T20:45:02.467Z,0
2017-06-06T20:50:03.174Z,0
2017-06-06T20:55:03.304Z,0
2017-06-06T21:00:02.686Z,0
2017-06-06T21:05:03.185Z,0
2017-06-06T21:10:02.403Z,0
2017-06-06T21:15:03.295Z,0
2017-06-06T21:20:02.655Z,0
2017-06-06T21:25:03.073Z,0
2017-06-06T21:30:02.749Z,0
2017-06-06T21:35:03.139Z,0
2017-06-06T21:40:02.536Z,0
2017-06-06T21:45:03.003Z,0
2017-06-06T21:50:02.360Z,0
2017-06-06T21:55:02.799Z,0
2017-06-06T22:00:03.202Z,0
2017-06-06T22:05:02.546Z,0
2017-06-06T22:10:02.913Z,0
2017-06-06T22:15:03.204Z,0
2017-06-06T22:20:02.607Z,0
2017-06-06T22:25:03.025Z,0
2017-06-06T22:30:02.461Z,0
2017-06-06T22:35:02.931Z,0
2017-06-06T22:40:03.318Z,0
2017-06-06T22:45:02.712Z,0
2017-06-06T22:50:03.011Z,0
2017-06-06T22:55:02.470Z,0
2017-06-06T23:00:02.879Z,0
2017-06-06T23:05:02.397Z,0
2017-06-06T23:10:02.801Z,0
2017-06-06T23:15:03.138Z,0
2017-06-06T23:20:02.520Z,0
2017-06-06T23:25:03.027Z,0
2017-06-06T23:30:02.417Z,0
2017-06-06T23:35:02.885Z,0
2017-06-06T23:40:03.340Z,0
2017-06-06T23:45:02.768Z,0
2017-06-06T23:50:03.198Z,0
2017-06-06T23:55:02.625Z,0
